Boggsville, Illinois
Current Conditions -  °F | °C
As of 2:55 AM on Saturday 25 Oct 2014 (Local Time) from K1H2 Reporting Station
Overcast Overcast  
Wind Chill: 61°   Ceiling: 4000
Heat Index: 61°   Visibility: 10mi
Dew Point: 51°   Wind: 6mph
Humidity: 70%   Direction: 200°SSW
Pressure: 29.98"   Gusts: NA
Location:  39.1183°N, 88.6059°W
Report Text: K1H2 250755Z AUTO 20005KT 10SM OVC040 16/11 A2998 RMK AO2 T01600105
Loading
Personal Weather Stations






























Interactive Weather Map
Tropical Storm Tracking
New forecast layout! Learn more

10-Day Weather Forecast

Advertisements
Track Severe Weather on mobile